Time;durP1;ratioP1;P1;durP2;ratioP2;P2;SDS_P1;SDS_P2;PMS_P1;PMS_P2;Temp;Humidity;BMP_temperature;BMP_pressure;BME280_temperature;BME280_humidity;BME280_pressure;Samples;Min_cycle;Max_cycle;Signal;HPM_P1;HPM_P2
2021/10/13 00:00:28;;;;;;;43.80;29.80;;;;;;;6.03;100.00;98916.55;1701449;84;21127;-58
2021/10/13 00:02:54;;;;;;;36.93;26.07;;;;;;;6.02;100.00;98918.91;1701263;83;20901;-58
2021/10/13 00:05:21;;;;;;;48.28;28.62;;;;;;;6.01;100.00;98916.77;1701889;83;20917;-58
2021/10/13 00:07:48;;;;;;;46.50;30.25;;;;;;;6.01;100.00;98915.97;1701323;84;20878;-58
2021/10/13 00:10:14;;;;;;;45.67;26.87;;;;;;;6.01;100.00;98913.31;1701217;84;20965;-58
2021/10/13 00:12:41;;;;;;;42.30;27.62;;;;;;;5.99;100.00;98905.55;1702191;83;21892;-58
2021/10/13 00:15:11;;;;;;;37.90;27.27;;;;;;;6.00;100.00;98905.02;1701266;84;20893;-58
2021/10/13 00:17:39;;;;;;;39.35;26.60;;;;;;;5.97;100.00;98910.83;1701226;82;21051;-58
2021/10/13 00:20:06;;;;;;;45.78;28.95;;;;;;;5.95;100.00;98905.76;1701302;83;21416;-58
2021/10/13 00:22:33;;;;;;;46.98;30.32;;;;;;;5.94;100.00;98907.32;1701744;84;21450;-58
2021/10/13 00:24:59;;;;;;;45.90;30.60;;;;;;;5.91;100.00;98907.24;1703016;84;21178;-58
2021/10/13 00:27:26;;;;;;;49.90;30.97;;;;;;;5.91;100.00;98904.58;1702246;83;20933;-58
2021/10/13 00:29:52;;;;;;;47.15;31.55;;;;;;;5.90;100.00;98908.27;1701087;84;20901;-58
2021/10/13 00:32:19;;;;;;;52.30;40.00;;;;;;;5.89;100.00;98904.53;1701247;84;21365;-57
2021/10/13 00:34:46;;;;;;;54.08;38.70;;;;;;;5.86;100.00;98908.48;1701376;84;20984;-58
2021/10/13 00:37:12;;;;;;;53.55;32.60;;;;;;;5.84;100.00;98903.91;1701566;84;21084;-58
2021/10/13 00:39:39;;;;;;;42.03;30.08;;;;;;;5.85;100.00;98908.71;1701359;84;20917;-58
2021/10/13 00:42:05;;;;;;;48.28;32.95;;;;;;;5.84;100.00;98909.77;1702720;83;20901;-58
2021/10/13 00:44:32;;;;;;;75.75;60.28;;;;;;;5.82;100.00;98909.19;1728487;83;20913;-58
2021/10/13 00:47:00;;;;;;;57.98;39.90;;;;;;;5.80;100.00;98902.77;1728617;83;20897;-58
2021/10/13 00:49:26;;;;;;;58.33;42.80;;;;;;;5.79;100.00;98905.16;1728479;82;21324;-58
2021/10/13 00:51:53;;;;;;;47.65;33.65;;;;;;;5.78;100.00;98907.52;1727940;83;20905;-58
2021/10/13 00:54:20;;;;;;;43.45;29.40;;;;;;;5.76;100.00;98909.63;1728600;83;21383;-58
2021/10/13 00:56:46;;;;;;;46.95;31.40;;;;;;;5.76;100.00;98911.77;1672462;83;20845;-59
2021/10/13 00:59:13;;;;;;;47.38;31.55;;;;;;;5.75;100.00;98910.13;1730608;83;20874;-58
2021/10/13 01:01:51;;;;;;;69.97;54.73;;;;;;;5.72;100.00;98907.15;1728024;83;21172;-57
2021/10/13 01:04:45;;;;;;;59.20;40.38;;;;;;;5.73;100.00;98909.59;1728430;83;26789;-57
2021/10/13 01:07:50;;;;;;;67.92;50.70;;;;;;;5.74;100.00;98901.88;1728424;83;20865;-58
2021/10/13 01:10:58;;;;;;;61.75;45.28;;;;;;;5.73;100.00;98900.77;1728527;83;20960;-58
2021/10/13 01:13:48;;;;;;;56.98;38.13;;;;;;;5.70;100.00;98896.72;1726974;83;20889;-58
2021/10/13 01:16:20;;;;;;;56.83;38.95;;;;;;;5.68;100.00;98899.34;1728449;83;21148;-58
2021/10/13 01:18:51;;;;;;;48.80;32.17;;;;;;;5.63;100.00;98889.40;1721881;82;20872;-58
2021/10/13 01:21:57;;;;;;;48.73;32.48;;;;;;;5.60;100.00;98888.55;1693049;84;20881;-58
2021/10/13 01:24:49;;;;;;;52.95;34.38;;;;;;;5.56;100.00;98889.56;1726378;81;21498;-58
2021/10/13 01:27:39;;;;;;;51.10;33.33;;;;;;;5.49;100.00;98894.21;1685093;84;21419;-58
2021/10/13 01:30:07;;;;;;;65.80;41.30;;;;;;;5.45;100.00;98901.05;1667781;85;21127;-56
2021/10/13 01:32:36;;;;;;;67.20;42.13;;;;;;;5.42;100.00;98910.03;1668847;85;20940;-56
2021/10/13 01:35:04;;;;;;;59.55;38.17;;;;;;;5.40;100.00;98902.80;1666534;84;20957;-56
2021/10/13 01:37:50;;;;;;;51.70;34.90;;;;;;;5.36;100.00;98899.30;1666180;85;20984;-56
2021/10/13 01:40:19;;;;;;;56.98;36.55;;;;;;;5.31;100.00;98899.16;1667616;86;21091;-56
2021/10/13 01:42:50;;;;;;;46.23;31.57;;;;;;;5.30;100.00;98902.87;1667352;84;21177;-56
2021/10/13 01:45:17;;;;;;;58.08;34.83;;;;;;;5.27;100.00;98899.89;1667486;86;20996;-56
2021/10/13 01:47:45;;;;;;;44.05;30.82;;;;;;;5.23;100.00;98908.84;1667527;86;20897;-57
2021/10/13 01:50:12;;;;;;;;;;;;;;;5.20;100.00;98909.33;1669797;86;20972;-56
2021/10/13 01:52:39;;;;;;;49.77;31.05;;;;;;;5.20;100.00;98912.52;1667397;85;20173;-56
2021/10/13 01:55:07;;;;;;;56.13;35.73;;;;;;;5.17;100.00;98915.12;1667448;86;21750;-56
2021/10/13 01:57:33;;;;;;;64.95;43.13;;;;;;;5.16;100.00;98917.48;1681239;84;20984;-57
2021/10/13 02:00:05;;;;;;;71.45;43.98;;;;;;;5.15;100.00;98915.34;1725648;83;21011;-56
2021/10/13 02:02:34;;;;;;;189.75;87.57;;;;;;;5.14;100.00;98904.43;1693224;84;20932;-57
2021/10/13 02:05:00;;;;;;;76.03;54.70;;;;;;;5.11;100.00;98900.88;1726568;83;20947;-58
2021/10/13 02:07:29;;;;;;;59.03;39.35;;;;;;;5.06;100.00;98896.78;1693670;84;21392;-58
2021/10/13 02:09:58;;;;;;;76.10;46.83;;;;;;;5.04;100.00;98900.72;1725980;83;20937;-57
2021/10/13 02:12:25;;;;;;;112.85;75.72;;;;;;;5.00;100.00;98902.22;1711040;82;20920;-57
2021/10/13 02:14:53;;;;;;;73.22;46.37;;;;;;;4.99;100.00;98904.61;1699446;84;28109;-57
2021/10/13 02:17:20;;;;;;;63.45;41.18;;;;;;;4.96;100.00;98918.37;1699344;82;21395;-58
2021/10/13 02:19:46;;;;;;;78.75;58.00;;;;;;;4.94;100.00;98914.61;1703049;84;21117;-58
2021/10/13 02:22:14;;;;;;;72.92;53.05;;;;;;;4.87;100.00;98913.92;1701003;84;20992;-58
2021/10/13 02:24:51;;;;;;;58.10;38.40;;;;;;;4.81;100.00;98907.69;1701319;84;21401;-58
2021/10/13 02:27:48;;;;;;;54.50;35.40;;;;;;;4.75;100.00;98917.09;1702318;83;21353;-58
2021/10/13 02:30:14;;;;;;;64.40;40.67;;;;;;;4.70;100.00;98921.77;1632737;86;20888;-57
2021/10/13 02:32:41;;;;;;;115.20;66.85;;;;;;;4.65;100.00;98921.66;1632684;86;21238;-57
2021/10/13 02:35:09;;;;;;;78.35;46.20;;;;;;;4.64;100.00;98921.38;1633028;86;21086;-58
2021/10/13 02:37:35;;;;;;;86.55;49.60;;;;;;;4.59;100.00;98916.75;1632822;86;20914;-57
2021/10/13 02:40:05;;;;;;;99.15;57.70;;;;;;;4.58;100.00;98919.14;1632355;88;21065;-58
2021/10/13 02:42:33;;;;;;;73.85;45.65;;;;;;;4.55;100.00;98918.23;1655279;86;20956;-58
2021/10/13 02:45:01;;;;;;;;;;;;;;;4.54;100.00;98921.95;1661951;86;21138;-58
2021/10/13 02:47:56;;;;;;;64.22;39.15;;;;;;;4.51;100.00;98929.06;1659113;86;20141;-58
2021/10/13 02:50:51;;;;;;;124.95;63.63;;;;;;;4.49;100.00;98928.48;1637222;86;21427;-58
2021/10/13 02:53:35;;;;;;;103.05;54.95;;;;;;;4.45;100.00;98934.75;1659486;85;21498;-58
2021/10/13 02:56:06;;;;;;;119.33;65.85;;;;;;;4.45;100.00;98941.39;1659163;85;20897;-57
2021/10/13 02:58:41;;;;;;;72.47;45.63;;;;;;;4.46;100.00;98943.56;1659410;86;21158;-58
2021/10/13 03:01:11;;;;;;;81.20;47.35;;;;;;;4.41;100.00;98938.92;1679012;84;20911;-58
2021/10/13 03:03:50;;;;;;;73.57;43.92;;;;;;;4.39;100.00;98934.87;1701297;84;20888;-57
2021/10/13 03:06:17;;;;;;;102.07;51.65;;;;;;;4.36;100.00;98933.98;1714648;83;20913;-58
2021/10/13 03:08:48;;;;;;;65.28;39.13;;;;;;;4.27;100.00;98940.97;1728452;83;21438;-58
2021/10/13 03:11:16;;;;;;;71.67;39.90;;;;;;;4.18;100.00;98931.70;1728059;82;21124;-57
2021/10/13 03:13:46;;;;;;;58.23;35.78;;;;;;;4.09;100.00;98946.33;1728458;83;20944;-57
2021/10/13 03:16:13;;;;;;;58.25;35.23;;;;;;;4.01;100.00;98943.48;1728250;83;20948;-57
2021/10/13 03:18:40;;;;;;;64.50;39.75;;;;;;;3.94;100.00;98945.41;1727920;82;20973;-57
2021/10/13 03:21:07;;;;;;;92.30;50.75;;;;;;;3.85;100.00;98944.13;1728148;82;20946;-58
2021/10/13 03:23:33;;;;;;;124.95;68.80;;;;;;;3.75;100.00;98946.48;1728468;82;21086;-58
2021/10/13 03:26:09;;;;;;;129.63;70.75;;;;;;;3.65;100.00;98941.21;1713993;82;20914;-58
2021/10/13 03:28:38;;;;;;;99.85;50.58;;;;;;;3.58;100.00;98938.35;1700944;84;20854;-57
2021/10/13 03:31:05;;;;;;;91.32;50.67;;;;;;;3.41;100.00;98937.62;1701532;84;20921;-57
2021/10/13 03:33:38;;;;;;;68.63;40.50;;;;;;;3.28;100.00;98940.41;1701377;84;20910;-58
2021/10/13 03:36:06;;;;;;;75.08;38.73;;;;;;;3.18;100.00;98946.74;1709876;83;21154;-58
2021/10/13 03:38:33;;;;;;;74.80;39.53;;;;;;;3.11;100.00;98944.67;1730192;83;20859;-58
2021/10/13 03:40:59;;;;;;;67.12;38.70;;;;;;;2.99;100.00;98948.07;1710874;83;20996;-58
2021/10/13 03:43:26;;;;;;;71.95;39.67;;;;;;;2.87;100.00;98948.49;1730061;83;20949;-57
2021/10/13 03:45:53;;;;;;;81.63;47.27;;;;;;;2.84;100.00;98944.93;1728484;83;20948;-58
2021/10/13 03:48:20;;;;;;;88.62;53.28;;;;;;;2.85;100.00;98937.29;1706876;83;21059;-57
2021/10/13 03:50:46;;;;;;;128.45;76.82;;;;;;;2.88;100.00;98943.47;1701710;83;20960;-57
2021/10/13 03:53:13;;;;;;;107.75;68.85;;;;;;;2.94;100.00;98953.71;1701101;84;20964;-57
2021/10/13 03:55:40;;;;;;;89.95;52.13;;;;;;;2.93;100.00;98943.63;1701501;84;20980;-57
2021/10/13 03:58:07;;;;;;;87.97;53.20;;;;;;;2.93;100.00;98950.77;1701274;84;21016;-57
2021/10/13 04:00:34;;;;;;;92.85;46.68;;;;;;;2.83;100.00;98942.52;1701856;83;21100;-58
2021/10/13 04:03:00;;;;;;;79.60;47.33;;;;;;;2.74;100.00;98942.80;1701681;84;20930;-57
2021/10/13 04:05:27;;;;;;;76.47;45.12;;;;;;;2.64;100.00;98949.61;1701184;84;20952;-57
2021/10/13 04:07:54;;;;;;;87.37;47.90;;;;;;;2.51;100.00;98948.69;1701484;84;21352;-57
2021/10/13 04:10:20;;;;;;;134.12;74.72;;;;;;;2.41;100.00;98951.02;1701487;83;20972;-57
2021/10/13 04:12:48;;;;;;;89.28;51.70;;;;;;;2.38;100.00;98942.18;1701484;84;20866;-57
2021/10/13 04:15:15;;;;;;;89.97;54.42;;;;;;;2.51;100.00;98935.44;1701956;83;21024;-58
2021/10/13 04:17:42;;;;;;;75.35;49.67;;;;;;;2.62;100.00;98936.59;1701551;84;20944;-59
2021/10/13 04:20:11;;;;;;;81.75;50.52;;;;;;;2.65;100.00;98933.50;1701217;83;20925;-58
2021/10/13 04:22:38;;;;;;;77.58;49.93;;;;;;;2.64;100.00;98928.41;1701733;84;20873;-58
2021/10/13 04:25:06;;;;;;;88.15;54.08;;;;;;;2.67;100.00;98931.94;1710819;83;20981;-58
2021/10/13 04:27:34;;;;;;;117.70;74.75;;;;;;;2.76;100.00;98940.72;1725995;83;20856;-58
2021/10/13 04:30:05;;;;;;;97.57;57.35;;;;;;;2.76;100.00;98942.56;1725992;83;20904;-58
2021/10/13 04:32:32;;;;;;;86.80;55.40;;;;;;;2.74;100.00;98945.95;1725778;83;20968;-57
2021/10/13 04:34:59;;;;;;;84.17;49.03;;;;;;;2.74;100.00;98944.13;1726145;83;20939;-57
2021/10/13 04:37:25;;;;;;;81.53;54.10;;;;;;;2.65;100.00;98948.08;1728005;83;21047;-57
2021/10/13 04:39:52;;;;;;;96.53;61.02;;;;;;;2.62;100.00;98957.79;1727075;83;20957;-57
2021/10/13 04:42:18;;;;;;;76.80;52.40;;;;;;;2.61;100.00;98961.97;1730757;81;20973;-58
2021/10/13 04:44:45;;;;;;;259.92;113.90;;;;;;;2.59;100.00;98962.17;1730530;82;21385;-58
2021/10/13 04:47:11;;;;;;;136.62;70.45;;;;;;;2.52;100.00;98968.03;1730383;83;20977;-57
2021/10/13 04:49:38;;;;;;;312.50;129.60;;;;;;;2.53;100.00;98973.65;1730680;81;21102;-58
2021/10/13 04:52:05;;;;;;;153.93;74.67;;;;;;;2.52;100.00;98980.80;1728620;83;20897;-58
2021/10/13 04:54:32;;;;;;;85.10;52.33;;;;;;;2.59;100.00;98979.39;1726511;83;20964;-58
2021/10/13 04:56:58;;;;;;;79.70;49.93;;;;;;;2.66;100.00;98983.33;1722569;82;20946;-59
2021/10/13 04:59:25;;;;;;;252.00;108.75;;;;;;;2.70;100.00;98984.01;1700849;84;21033;-56
2021/10/13 05:01:51;;;;;;;106.12;58.92;;;;;;;2.83;100.00;98987.05;1701152;84;21147;-57
2021/10/13 05:04:18;;;;;;;294.02;119.70;;;;;;;2.94;100.00;98999.61;1700861;84;21423;-57
2021/10/13 05:06:45;;;;;;;202.60;95.12;;;;;;;3.04;100.00;98996.95;1714027;83;20869;-58
2021/10/13 05:09:12;;;;;;;104.78;60.03;;;;;;;3.17;100.00;99003.48;1722465;83;20976;-58
2021/10/13 05:11:39;;;;;;;104.17;60.70;;;;;;;3.28;100.00;99006.72;1718986;82;20925;-58
2021/10/13 05:14:06;;;;;;;76.57;50.33;;;;;;;3.42;100.00;98996.79;1729159;83;21861;-58
2021/10/13 05:16:32;;;;;;;83.03;51.00;;;;;;;3.52;100.00;98997.60;1730300;83;20874;-56
2021/10/13 05:18:59;;;;;;;90.50;53.50;;;;;;;3.60;100.00;98993.31;1730360;82;20993;-58
2021/10/13 05:21:25;;;;;;;81.97;50.25;;;;;;;3.65;100.00;98994.30;1729334;81;21397;-58
2021/10/13 05:23:52;;;;;;;86.55;48.90;;;;;;;3.72;100.00;99001.35;1730349;83;21017;-58
2021/10/13 05:26:19;;;;;;;74.85;45.03;;;;;;;3.77;100.00;99009.45;1708600;83;21131;-58
2021/10/13 05:28:45;;;;;;;76.10;47.60;;;;;;;3.82;100.00;99013.58;1710842;83;20918;-58
2021/10/13 05:31:12;;;;;;;88.70;52.78;;;;;;;3.85;100.00;99012.63;1715348;83;20960;-59
2021/10/13 05:33:39;;;;;;;91.47;49.15;;;;;;;3.90;100.00;99018.61;1715541;83;20950;-59
2021/10/13 05:40:20;;;;;;;106.40;57.60;;;;;;;4.02;100.00;99027.44;1703787;81;20957;-59
2021/10/13 05:46:46;;;;;;;103.65;56.42;;;;;;;4.14;100.00;99024.84;1701766;83;20926;-58
2021/10/13 05:53:12;;;;;;;114.08;59.95;;;;;;;4.21;100.00;99030.84;1710615;83;21516;-57
2021/10/13 05:59:40;;;;;;;98.60;57.03;;;;;;;4.29;100.00;99029.23;1712656;83;20911;-58
2021/10/13 06:06:08;;;;;;;99.77;51.63;;;;;;;4.33;100.00;99040.20;1712327;83;20953;-58
2021/10/13 06:12:35;;;;;;;99.37;52.53;;;;;;;4.42;100.00;99039.38;1718571;83;21431;-57
2021/10/13 06:19:03;;;;;;;99.07;48.87;;;;;;;4.53;100.00;99042.58;1707850;80;20977;-57
2021/10/13 06:25:31;;;;;;;98.00;50.43;;;;;;;4.51;100.00;99050.79;1752065;81;20977;-58
2021/10/13 06:31:57;;;;;;;88.10;48.15;;;;;;;4.43;100.00;99060.39;1757264;81;21384;-57
2021/10/13 06:38:23;;;;;;;113.68;59.53;;;;;;;4.38;100.00;99066.09;1727087;83;20904;-57
2021/10/13 06:44:49;;;;;;;85.35;49.15;;;;;;;4.46;100.00;99069.79;1727087;83;20948;-57
2021/10/13 06:47:16;;;;;;;103.22;53.48;;;;;;;4.59;100.00;99077.56;1726971;83;20821;-57
2021/10/13 06:49:43;;;;;;;90.25;48.50;;;;;;;4.61;100.00;99087.98;1727065;83;20924;-57
2021/10/13 06:52:09;;;;;;;90.07;48.42;;;;;;;4.63;100.00;99081.90;1727129;83;20955;-57
2021/10/13 06:54:37;;;;;;;86.42;47.83;;;;;;;4.68;100.00;99086.05;1727241;83;20872;-57
2021/10/13 06:57:03;;;;;;;74.97;43.85;;;;;;;4.79;100.00;99090.56;1726321;81;21122;-57
2021/10/13 06:59:31;;;;;;;87.55;48.17;;;;;;;4.92;100.00;99094.87;1730843;81;21406;-58
2021/10/13 07:01:58;;;;;;;90.62;50.35;;;;;;;5.08;100.00;99098.73;1727695;81;20973;-57
2021/10/13 07:04:25;;;;;;;97.30;50.08;;;;;;;5.15;100.00;99100.77;1753613;81;21455;-58
2021/10/13 07:06:51;;;;;;;96.57;52.38;;;;;;;5.16;100.00;99101.05;1753178;81;21414;-59
2021/10/13 07:09:19;;;;;;;97.60;50.45;;;;;;;5.24;100.00;99102.06;1730876;81;20953;-58
2021/10/13 07:11:47;;;;;;;90.10;48.02;;;;;;;5.32;100.00;99103.05;1727164;83;20871;-58
2021/10/13 07:14:15;;;;;;;80.25;48.20;;;;;;;5.42;100.00;99106.99;1726753;83;20917;-57
2021/10/13 07:16:42;;;;;;;82.50;44.53;;;;;;;5.49;100.00;99097.05;1727249;83;20934;-57
2021/10/13 07:19:08;;;;;;;84.32;45.60;;;;;;;5.50;100.00;99104.78;1726029;83;21413;-58
2021/10/13 07:21:35;;;;;;;82.78;46.35;;;;;;;5.49;100.00;99093.05;1713346;83;21150;-57
2021/10/13 07:24:02;;;;;;;76.82;45.15;;;;;;;5.60;100.00;99101.54;1713328;83;21028;-57
2021/10/13 07:26:31;;;;;;;108.55;73.30;;;;;;;5.70;100.00;99104.42;1713230;83;21000;-57
2021/10/13 07:28:57;;;;;;;75.42;44.03;;;;;;;5.74;100.00;99104.78;1713276;83;20902;-57
2021/10/13 07:31:24;;;;;;;135.80;59.30;;;;;;;5.75;100.00;99103.73;1722830;81;20969;-57
2021/10/13 07:33:51;;;;;;;76.37;44.60;;;;;;;5.80;100.00;99099.84;1693121;84;21145;-57
2021/10/13 07:36:17;;;;;;;80.80;45.65;;;;;;;5.91;100.00;99107.02;1693069;84;20909;-57
2021/10/13 07:38:45;;;;;;;100.35;50.00;;;;;;;6.00;100.00;99102.98;1693332;84;21352;-58
2021/10/13 07:41:14;;;;;;;77.12;45.55;;;;;;;6.04;100.00;99100.65;1693249;84;20937;-57
2021/10/13 07:43:41;;;;;;;71.17;43.65;;;;;;;6.14;100.00;99092.05;1693319;84;20968;-57
2021/10/13 07:46:07;;;;;;;64.07;40.70;;;;;;;6.08;100.00;99088.48;1693262;84;21123;-58
2021/10/13 07:48:34;;;;;;;64.90;38.05;;;;;;;6.18;100.00;99086.02;1693135;84;20905;-57
2021/10/13 07:51:01;;;;;;;66.60;38.40;;;;;;;6.31;100.00;99078.80;1689281;84;20939;-57
2021/10/13 07:53:30;;;;;;;70.15;39.98;;;;;;;6.47;100.00;99082.05;1667395;84;21467;-58
2021/10/13 07:55:56;;;;;;;58.28;36.93;;;;;;;6.75;100.00;99083.88;1668369;84;21032;-58
2021/10/13 07:58:23;;;;;;;119.93;52.50;;;;;;;6.97;100.00;99093.32;1698197;84;21126;-57
2021/10/13 08:00:50;;;;;;;55.03;33.13;;;;;;;7.05;100.00;99092.11;1725129;81;22197;-58
2021/10/13 08:03:16;;;;;;;55.00;34.13;;;;;;;7.13;100.00;99097.07;1713166;82;21034;-58
2021/10/13 08:05:43;;;;;;;56.30;33.70;;;;;;;7.21;100.00;99094.52;1713068;82;20987;-58
2021/10/13 08:08:10;;;;;;;50.98;33.23;;;;;;;7.35;100.00;99087.80;1713067;83;21023;-58
2021/10/13 08:10:37;;;;;;;58.58;30.72;;;;;;;7.46;100.00;99092.76;1713034;82;21202;-57
2021/10/13 08:13:03;;;;;;;47.38;31.30;;;;;;;7.59;100.00;99096.95;1712666;83;20899;-58
2021/10/13 08:15:30;;;;;;;47.27;27.85;;;;;;;7.79;100.00;99083.06;1713150;83;21520;-58
2021/10/13 08:17:57;;;;;;;48.20;30.12;;;;;;;8.06;100.00;99083.14;1713368;82;20983;-58
2021/10/13 08:20:23;;;;;;;46.85;29.77;;;;;;;8.38;100.00;99081.94;1708582;83;21399;-59
2021/10/13 08:22:52;;;;;;;42.85;28.02;;;;;;;8.56;100.00;99078.94;1701453;84;21371;-58
2021/10/13 08:25:18;;;;;;;47.17;29.85;;;;;;;8.80;100.00;99078.64;1660236;85;20972;-58
2021/10/13 08:27:45;;;;;;;54.67;34.13;;;;;;;8.91;100.00;99073.64;1660247;86;20857;-58
2021/10/13 08:30:12;;;;;;;47.48;30.88;;;;;;;9.04;100.00;99077.79;1659578;86;20976;-58
2021/10/13 08:32:39;;;;;;;47.17;29.45;;;;;;;9.03;100.00;99068.67;1660213;85;20930;-58
2021/10/13 08:35:07;;;;;;;43.65;26.65;;;;;;;8.95;100.00;99066.73;1660138;86;21173;-58
2021/10/13 08:37:35;;;;;;;41.35;26.20;;;;;;;9.07;100.00;99064.42;1660221;86;20957;-59
2021/10/13 08:40:01;;;;;;;50.92;28.35;;;;;;;9.10;100.00;99067.38;1660486;86;20996;-58
2021/10/13 08:42:29;;;;;;;46.45;28.40;;;;;;;9.11;100.00;99073.00;1668658;84;20930;-58
2021/10/13 08:44:56;;;;;;;42.03;27.67;;;;;;;9.26;100.00;99067.49;1660549;86;20854;-58
2021/10/13 08:47:23;;;;;;;38.08;25.00;;;;;;;9.16;100.00;99073.07;1660294;86;21184;-58
2021/10/13 08:49:51;;;;;;;42.80;26.93;;;;;;;9.33;100.00;99078.80;1660420;86;21218;-58
2021/10/13 08:52:17;;;;;;;;;;;;;;;9.42;100.00;99078.06;1662684;86;21027;-59
2021/10/13 08:54:44;;;;;;;40.78;27.37;;;;;;;9.51;100.00;99081.08;1660324;86;20111;-58
2021/10/13 08:57:24;;;;;;;39.08;26.10;;;;;;;9.63;100.00;99081.69;1660630;86;21413;-58
2021/10/13 08:59:52;;;;;;;42.93;27.15;;;;;;;9.71;100.00;99082.27;1660553;86;21175;-58
2021/10/13 09:02:38;;;;;;;38.00;25.02;;;;;;;9.64;100.00;99088.66;1660467;86;20862;-58
2021/10/13 09:05:14;;;;;;;39.25;26.55;;;;;;;9.57;100.00;99097.45;1660233;86;20865;-58
2021/10/13 09:07:53;;;;;;;38.92;25.37;;;;;;;9.40;100.00;99095.45;1660502;86;20981;-58
2021/10/13 09:10:34;;;;;;;38.65;25.48;;;;;;;9.31;100.00;99096.98;1660543;86;20960;-58
2021/10/13 09:13:05;;;;;;;35.60;24.75;;;;;;;9.50;100.00;99104.90;1660619;86;21143;-58
2021/10/13 09:15:33;;;;;;;39.65;26.35;;;;;;;9.85;100.00;99102.99;1659845;86;21009;-58
2021/10/13 09:18:04;;;;;;;35.28;24.85;;;;;;;9.94;100.00;99098.47;1660449;86;20989;-58
2021/10/13 09:20:35;;;;;;;42.58;26.30;;;;;;;9.84;100.00;99104.58;1660209;85;20953;-59
2021/10/13 09:23:31;;;;;;;40.65;24.67;;;;;;;9.88;100.00;99101.13;1660227;86;20874;-58
2021/10/13 09:26:10;;;;;;;37.83;24.30;;;;;;;9.95;100.00;99101.44;1659503;85;21440;-58
2021/10/13 09:28:37;;;;;;;72.15;39.20;;;;;;;9.86;100.00;99103.25;1659798;86;21393;-58
2021/10/13 09:31:17;;;;;;;41.63;25.43;;;;;;;9.96;100.00;99103.04;1660116;86;20862;-58
2021/10/13 09:34:05;;;;;;;70.35;38.15;;;;;;;10.15;100.00;99102.06;1660264;86;21766;-58
2021/10/13 09:36:45;;;;;;;37.88;23.57;;;;;;;10.17;100.00;99112.80;1660104;86;20980;-58
2021/10/13 09:39:14;;;;;;;;;;;;;;;10.10;100.00;99114.91;1662705;86;21137;-58
2021/10/13 09:42:08;;;;;;;52.50;37.98;;;;;;;9.78;100.00;99108.31;1660238;86;20428;-58
2021/10/13 09:44:45;;;;;;;228.65;96.28;;;;;;;9.58;100.00;99115.16;1659832;86;20846;-58
2021/10/13 09:47:13;;;;;;;34.70;23.47;;;;;;;9.57;100.00;99113.52;1637244;86;20945;-58
2021/10/13 09:49:43;;;;;;;44.73;25.67;;;;;;;9.65;100.00;99124.28;1664452;84;21318;-59
2021/10/13 09:52:15;;;;;;;38.28;24.02;;;;;;;9.61;100.00;99125.89;1669256;83;21332;-59
2021/10/13 09:58:41;;;;;;;34.43;22.45;;;;;;;9.32;100.00;99120.05;1679051;84;21009;-58
2021/10/13 10:05:11;;;;;;;39.00;22.25;;;;;;;9.20;100.00;99132.27;1677348;85;20972;-59
2021/10/13 10:07:45;;;;;;;31.62;22.00;;;;;;;9.21;100.00;99137.88;1687289;85;21125;-59
2021/10/13 10:10:17;;;;;;;41.40;21.95;;;;;;;9.21;100.00;99125.33;1687696;84;21467;-59
2021/10/13 10:13:04;;;;;;;31.33;21.73;;;;;;;8.89;100.00;99129.83;1685767;84;20980;-59
2021/10/13 10:15:39;;;;;;;44.58;27.15;;;;;;;8.90;100.00;99132.80;1688007;85;20984;-59
2021/10/13 10:18:32;;;;;;;97.72;64.58;;;;;;;8.94;100.00;99138.73;1667368;84;21424;-59
2021/10/13 10:21:22;;;;;;;45.63;27.52;;;;;;;8.83;100.00;99136.20;1688579;84;21211;-58
2021/10/13 10:23:51;;;;;;;42.98;28.02;;;;;;;8.79;100.00;99140.73;1697701;84;20912;-58
2021/10/13 10:26:29;;;;;;;;;;;;;;;8.79;100.00;99140.73;1700424;84;20972;-59
2021/10/13 10:29:11;;;;;;;34.78;22.40;;;;;;;8.76;100.00;99134.52;1698072;84;20104;-59
2021/10/13 10:31:40;;;;;;;33.73;21.77;;;;;;;8.74;100.00;99140.65;1688895;84;21031;-59
2021/10/13 10:34:14;;;;;;;35.10;21.15;;;;;;;8.64;100.00;99141.08;1691587;84;21140;-59
2021/10/13 10:36:51;;;;;;;67.90;33.98;;;;;;;8.57;100.00;99143.44;1698046;84;20917;-59
2021/10/13 10:39:19;;;;;;;95.55;41.10;;;;;;;8.55;100.00;99136.19;1697923;84;20917;-58
2021/10/13 10:41:50;;;;;;;32.63;21.05;;;;;;;8.48;100.00;99138.78;1697045;84;21384;-59
2021/10/13 10:44:47;;;;;;;61.88;31.45;;;;;;;8.58;100.00;99134.34;1685652;84;21359;-59
2021/10/13 10:47:16;;;;;;;35.98;20.62;;;;;;;8.53;100.00;99141.51;1728823;82;21129;-59
2021/10/13 10:49:57;;;;;;;67.60;30.25;;;;;;;8.43;100.00;99142.70;1722545;81;20976;-59
2021/10/13 10:52:26;;;;;;;29.72;20.45;;;;;;;8.37;100.00;99144.48;1728291;82;20976;-58
2021/10/13 10:55:08;;;;;;;;;;;;;;;8.38;100.00;99146.92;1715249;82;21468;-58
2021/10/13 10:57:48;;;;;;;38.65;19.55;;;;;;;8.37;100.00;99148.50;1713839;82;20469;-59
2021/10/13 11:00:32;;;;;;;29.95;18.95;;;;;;;8.26;100.00;99143.56;1709150;84;21128;-58
2021/10/13 11:03:22;;;;;;;29.52;19.25;;;;;;;8.31;100.00;99146.30;1726459;82;20970;-58
2021/10/13 11:05:48;;;;;;;32.53;18.73;;;;;;;8.51;100.00;99141.75;1724247;81;20861;-59
2021/10/13 11:08:16;;;;;;;31.02;20.35;;;;;;;8.79;100.00;99142.07;1707267;82;21461;-59
2021/10/13 11:10:43;;;;;;;32.73;18.48;;;;;;;8.95;100.00;99139.00;1716109;81;21412;-59
2021/10/13 11:13:09;;;;;;;25.80;17.25;;;;;;;8.91;100.00;99139.75;1727603;82;21845;-59
2021/10/13 11:15:38;;;;;;;27.60;19.07;;;;;;;9.00;100.00;99137.70;1716227;81;20983;-59
2021/10/13 11:18:14;;;;;;;54.15;19.07;;;;;;;8.90;100.00;99141.63;1727030;82;20905;-59
2021/10/13 11:20:40;;;;;;;25.82;17.35;;;;;;;8.82;100.00;99140.75;1712002;81;21011;-58
2021/10/13 11:23:07;;;;;;;27.32;16.60;;;;;;;8.84;100.00;99138.61;1711806;83;21050;-59
2021/10/13 11:25:35;;;;;;;27.27;17.98;;;;;;;8.91;100.00;99142.44;1669809;84;21139;-59
2021/10/13 11:28:07;;;;;;;28.92;18.42;;;;;;;8.94;100.00;99138.73;1678419;84;21426;-59
2021/10/13 11:30:44;;;;;;;27.87;17.30;;;;;;;8.96;100.00;99133.11;1683788;84;21044;-58
2021/10/13 11:33:15;;;;;;;51.98;28.05;;;;;;;8.93;100.00;99147.80;1687321;84;21020;-59
2021/10/13 11:35:42;;;;;;;30.90;19.40;;;;;;;8.96;100.00;99143.28;1678277;84;21010;-59
2021/10/13 11:38:13;;;;;;;41.65;25.25;;;;;;;8.88;100.00;99146.42;1687542;85;21848;-59
2021/10/13 11:40:41;;;;;;;39.83;23.35;;;;;;;8.91;100.00;99147.25;1665280;84;21459;-60
2021/10/13 11:43:12;;;;;;;38.48;22.20;;;;;;;8.94;100.00;99143.25;1677940;84;21044;-59
2021/10/13 11:45:51;;;;;;;55.48;26.30;;;;;;;8.76;100.00;99149.77;1672517;84;20905;-58
2021/10/13 11:48:27;;;;;;;32.05;20.65;;;;;;;8.84;100.00;99144.50;1680693;84;20976;-58
2021/10/13 11:50:56;;;;;;;30.57;17.60;;;;;;;8.77;100.00;99149.53;1686608;84;21132;-58
2021/10/13 11:53:23;;;;;;;25.77;17.02;;;;;;;8.66;100.00;99142.98;1685186;84;20989;-57
2021/10/13 11:55:50;;;;;;;22.67;16.10;;;;;;;8.76;100.00;99148.44;1678716;84;21483;-58
2021/10/13 11:58:31;;;;;;;29.45;18.50;;;;;;;8.93;100.00;99144.33;1678622;84;21537;-58
2021/10/13 12:00:58;;;;;;;27.05;18.05;;;;;;;8.96;100.00;99143.28;1681605;84;20993;-57
2021/10/13 12:03:29;;;;;;;27.70;16.57;;;;;;;8.94;100.00;99137.91;1670975;84;21751;-58
2021/10/13 12:05:59;;;;;;;26.73;16.40;;;;;;;9.03;100.00;99139.61;1659834;86;21430;-57
2021/10/13 12:08:33;;;;;;;26.40;15.45;;;;;;;9.10;100.00;99121.47;1659856;86;20931;-57
2021/10/13 12:11:14;;;;;;;23.50;14.05;;;;;;;9.07;100.00;99140.19;1671941;84;21012;-58
2021/10/13 12:13:52;;;;;;;31.95;17.15;;;;;;;9.19;100.00;99132.00;1678442;84;21468;-58
2021/10/13 12:16:22;;;;;;;24.50;15.60;;;;;;;9.30;100.00;99138.23;1666930;84;20975;-58
2021/10/13 12:18:49;;;;;;;27.10;16.35;;;;;;;9.41;100.00;99124.67;1676249;83;21000;-58
2021/10/13 12:21:22;;;;;;;25.60;15.45;;;;;;;9.41;100.00;99130.57;1675706;84;21064;-58
2021/10/13 12:24:04;;;;;;;22.35;16.23;;;;;;;9.45;100.00;99128.98;1669142;84;21020;-57